Time;durP1;ratioP1;P1;durP2;ratioP2;P2;SDS_P1;SDS_P2;PMS_P1;PMS_P2;Temp;Humidity;BMP_temperature;BMP_pressure;BME280_temperature;BME280_humidity;BME280_pressure;Samples;Min_cycle;Max_cycle;Signal;HPM_P1;HPM_P2
2022/08/31 00:04:09;;;;;;;1.90;1.40;;;16.10;1.00;;;;;;5004659;28;20050;-85
2022/08/31 00:06:35;;;;;;;3.33;1.40;;;16.00;1.00;;;;;;5002288;28;20391;-85
2022/08/31 00:09:04;;;;;;;2.00;1.25;;;16.00;1.00;;;;;;5016770;28;20768;-84
2022/08/31 00:11:30;;;;;;;1.15;1.02;;;16.00;99.90;;;;;;5017128;28;20037;-85
2022/08/31 00:13:59;;;;;;;1.25;1.10;;;15.90;5.50;;;;;;5010637;28;20417;-85
2022/08/31 00:16:29;;;;;;;2.15;1.00;;;15.90;1.00;;;;;;4986348;28;20521;-85
2022/08/31 00:18:54;;;;;;;2.75;1.20;;;15.90;1.00;;;;;;5021166;28;20052;-85
2022/08/31 00:21:25;;;;;;;2.20;0.80;;;15.80;1.00;;;;;;5007684;28;20055;-84
2022/08/31 00:23:52;;;;;;;1.35;0.82;;;15.80;17.00;;;;;;5023177;28;20120;-85
2022/08/31 00:26:18;;;;;;;2.03;1.20;;;15.80;1.00;;;;;;5011128;28;20065;-85
2022/08/31 00:28:45;;;;;;;1.83;0.90;;;15.70;51.90;;;;;;4994278;28;20100;-85
2022/08/31 00:31:11;;;;;;;1.13;0.93;;;15.60;94.20;;;;;;4994795;28;20029;-85
2022/08/31 00:33:37;;;;;;;1.70;1.17;;;15.60;99.90;;;;;;4998675;28;20049;-85
2022/08/31 00:36:05;;;;;;;2.00;1.40;;;15.50;99.90;;;;;;4994469;28;20041;-85
2022/08/31 00:38:31;;;;;;;1.45;1.00;;;15.50;99.90;;;;;;5016695;28;20038;-85
2022/08/31 00:40:57;;;;;;;2.15;1.40;;;15.40;99.90;;;;;;4995946;28;20041;-85
2022/08/31 00:43:38;;;;;;;3.00;1.15;;;15.40;99.90;;;;;;5020357;28;20060;-85
2022/08/31 00:46:06;;;;;;;1.52;1.27;;;15.30;99.90;;;;;;5020585;28;20053;-85
2022/08/31 00:48:34;;;;;;;3.03;1.20;;;15.30;99.90;;;;;;4985285;28;20060;-85
2022/08/31 00:51:00;;;;;;;2.22;1.17;;;15.30;99.90;;;;;;5016684;28;20146;-85
2022/08/31 00:53:26;;;;;;;1.55;1.10;;;15.30;99.90;;;;;;5020815;28;20135;-85
2022/08/31 00:55:52;;;;;;;1.10;1.00;;;15.20;99.90;;;;;;4995252;28;20117;-86
2022/08/31 00:58:21;;;;;;;2.28;1.35;;;15.20;99.90;;;;;;5011286;28;20087;-86
2022/08/31 01:00:47;;;;;;;1.83;0.90;;;15.10;99.90;;;;;;5018606;28;20379;-85
2022/08/31 01:03:14;;;;;;;1.77;0.98;;;15.10;99.90;;;;;;5020045;28;20037;-85
2022/08/31 01:05:41;;;;;;;1.88;0.90;;;15.00;99.90;;;;;;4991917;28;20057;-85
2022/08/31 01:08:07;;;;;;;2.72;0.95;;;15.00;99.90;;;;;;5024582;28;20192;-85
2022/08/31 01:10:37;;;;;;;1.45;0.90;;;14.90;99.90;;;;;;4990778;28;20037;-85
2022/08/31 01:13:05;;;;;;;3.22;0.95;;;14.90;99.90;;;;;;4993432;28;20049;-85
2022/08/31 01:15:31;;;;;;;2.85;0.73;;;14.90;99.90;;;;;;4996030;28;20029;-85
2022/08/31 01:18:03;;;;;;;2.53;0.70;;;14.90;99.90;;;;;;5006813;28;20298;-86
2022/08/31 01:21:11;;;;;;;0.80;0.65;;;14.90;99.90;;;;;;5007173;28;20103;-85
2022/08/31 01:23:44;;;;;;;1.70;0.80;;;14.80;99.90;;;;;;4992703;28;20418;-85
2022/08/31 01:26:15;;;;;;;2.30;0.85;;;14.80;99.90;;;;;;4992062;28;20037;-85
2022/08/31 01:28:41;;;;;;;0.82;0.80;;;14.70;99.90;;;;;;5036053;28;20030;-86
2022/08/31 01:31:19;;;;;;;1.73;0.70;;;14.70;99.90;;;;;;4991508;28;20402;-84
2022/08/31 01:33:45;;;;;;;2.15;1.10;;;14.60;99.90;;;;;;4992808;28;20046;-86
2022/08/31 01:36:11;;;;;;;1.13;0.70;;;14.60;99.90;;;;;;4981928;28;20124;-85
2022/08/31 01:38:37;;;;;;;1.27;0.80;;;14.60;1.00;;;;;;5017078;28;20046;-85
2022/08/31 01:41:04;;;;;;;0.80;0.70;;;14.50;1.00;;;;;;5016330;28;20546;-85
2022/08/31 01:43:34;;;;;;;1.85;1.10;;;14.50;1.00;;;;;;5018805;28;20437;-85
2022/08/31 01:46:07;;;;;;;1.30;0.80;;;14.40;1.00;;;;;;5000567;28;20500;-86
2022/08/31 01:48:33;;;;;;;1.48;0.82;;;14.30;1.00;;;;;;4984823;28;20471;-86
2022/08/31 01:51:03;;;;;;;2.35;0.80;;;14.30;82.10;;;;;;5000188;28;20092;-87
2022/08/31 01:53:29;;;;;;;1.92;1.02;;;14.30;99.90;;;;;;5029829;28;20477;-86
2022/08/31 01:55:55;;;;;;;0.80;0.65;;;14.20;99.90;;;;;;4993466;28;20569;-86
2022/08/31 01:58:21;;;;;;;1.52;0.70;;;14.10;99.90;;;;;;5013139;28;20099;-86
2022/08/31 02:00:47;;;;;;;1.35;0.98;;;14.10;99.90;;;;;;5041556;28;20025;-86
2022/08/31 02:03:12;;;;;;;1.27;0.90;;;14.00;99.90;;;;;;5024380;28;20326;-86
2022/08/31 02:05:38;;;;;;;1.77;0.70;;;14.00;99.90;;;;;;4978065;28;20042;-85
2022/08/31 02:08:06;;;;;;;2.95;1.30;;;14.00;99.90;;;;;;5009256;28;20191;-87
2022/08/31 02:10:32;;;;;;;1.13;0.80;;;14.00;99.90;;;;;;4990841;28;20054;-86
2022/08/31 02:12:58;;;;;;;0.90;0.70;;;13.90;1.00;;;;;;4993923;28;20408;-86
2022/08/31 02:15:24;;;;;;;1.50;0.95;;;13.90;1.00;;;;;;4991526;28;20508;-86
2022/08/31 02:17:49;;;;;;;1.45;0.73;;;13.80;36.20;;;;;;5013250;28;20045;-86
2022/08/31 02:20:16;;;;;;;1.55;0.95;;;13.80;95.20;;;;;;4993153;28;20100;-86
2022/08/31 02:22:43;;;;;;;1.15;0.80;;;13.60;99.90;;;;;;5020404;28;20039;-86
2022/08/31 02:25:10;;;;;;;2.63;1.10;;;13.50;99.90;;;;;;4995369;28;20129;-86
2022/08/31 02:27:36;;;;;;;1.45;1.00;;;13.60;99.90;;;;;;5008671;28;20040;-86
2022/08/31 02:30:05;;;;;;;2.40;1.10;;;13.40;99.90;;;;;;4991349;28;20074;-87
2022/08/31 02:32:30;;;;;;;2.80;1.13;;;13.40;99.90;;;;;;4984870;28;20038;-86
2022/08/31 02:34:56;;;;;;;2.25;0.77;;;13.30;99.90;;;;;;4995649;28;20491;-86
2022/08/31 02:37:22;;;;;;;1.85;0.90;;;13.30;1.00;;;;;;4986259;28;20038;-86
2022/08/31 02:39:48;;;;;;;1.65;1.10;;;13.30;1.00;;;;;;4994699;28;20492;-86
2022/08/31 02:42:13;;;;;;;1.58;0.80;;;13.10;37.30;;;;;;4989382;28;20048;-86
2022/08/31 02:44:39;;;;;;;1.25;0.75;;;13.00;82.20;;;;;;5017859;28;20176;-86
2022/08/31 02:47:05;;;;;;;1.08;0.80;;;12.90;99.90;;;;;;5013489;28;20045;-86
2022/08/31 02:49:31;;;;;;;2.72;0.90;;;12.70;99.90;;;;;;5013617;28;20130;-86
2022/08/31 02:51:57;;;;;;;1.80;0.85;;;12.60;99.90;;;;;;5019566;28;20076;-86
2022/08/31 02:54:23;;;;;;;2.50;0.90;;;12.60;99.90;;;;;;5018189;28;20046;-86
2022/08/31 02:56:49;;;;;;;1.25;0.73;;;12.50;99.90;;;;;;5007268;28;20086;-86
2022/08/31 02:59:14;;;;;;;2.67;1.05;;;12.40;99.90;;;;;;4987546;28;20042;-86
2022/08/31 03:01:40;;;;;;;3.35;1.00;;;12.40;99.90;;;;;;4994813;28;20138;-86
2022/08/31 03:04:06;;;;;;;1.67;1.00;;;12.40;99.90;;;;;;4985515;28;20443;-86
2022/08/31 03:06:33;;;;;;;1.00;0.85;;;12.30;99.90;;;;;;5034090;28;20156;-86
2022/08/31 03:08:59;;;;;;;1.33;0.85;;;12.30;99.90;;;;;;5014925;28;20069;-86
2022/08/31 03:11:25;;;;;;;0.80;0.80;;;12.30;99.90;;;;;;4984169;28;20076;-86
2022/08/31 03:13:51;;;;;;;1.20;0.88;;;12.30;99.90;;;;;;5022075;28;20232;-86
2022/08/31 03:16:18;;;;;;;2.40;1.20;;;12.20;99.90;;;;;;5015935;28;20046;-86
2022/08/31 03:18:45;;;;;;;1.52;1.00;;;12.30;99.90;;;;;;5020534;28;20067;-86
2022/08/31 03:21:11;;;;;;;2.47;1.15;;;12.40;1.00;;;;;;4992571;28;20038;-87
2022/08/31 03:23:37;;;;;;;1.90;0.95;;;12.40;1.00;;;;;;5009446;28;20136;-86
2022/08/31 03:26:04;;;;;;;1.45;1.13;;;12.40;1.00;;;;;;4991699;28;20108;-86
2022/08/31 03:28:34;;;;;;;1.83;1.08;;;12.40;1.00;;;;;;5020342;28;20041;-86
2022/08/31 03:31:06;;;;;;;2.38;1.20;;;12.40;1.00;;;;;;4990172;28;20030;-87
2022/08/31 03:36:16;;;;;;;1.52;1.08;;;12.40;1.00;;;;;;5026569;28;20045;-86
2022/08/31 03:38:42;;;;;;;1.50;1.15;;;12.30;19.00;;;;;;5005369;28;20037;-86
2022/08/31 03:41:08;;;;;;;1.98;0.88;;;12.40;99.90;;;;;;5018758;28;20038;-86
2022/08/31 03:43:35;;;;;;;2.28;1.35;;;12.30;1.00;;;;;;4996024;28;20040;-86
2022/08/31 03:46:01;;;;;;;1.15;1.00;;;12.30;1.00;;;;;;4992546;28;20052;-87
2022/08/31 03:48:26;;;;;;;2.78;1.27;;;12.20;1.00;;;;;;5023756;28;20393;-86
2022/08/31 03:50:53;;;;;;;1.83;1.10;;;12.20;99.90;;;;;;5023476;28;20041;-86
2022/08/31 03:53:18;;;;;;;1.25;1.00;;;12.20;4.20;;;;;;5016561;28;20038;-84
2022/08/31 03:55:44;;;;;;;1.65;0.90;;;12.10;44.20;;;;;;5020610;28;20045;-86
2022/08/31 03:58:10;;;;;;;2.17;1.33;;;12.20;99.90;;;;;;5034909;28;20049;-86
2022/08/31 04:00:43;;;;;;;1.60;0.93;;;12.00;99.90;;;;;;5019762;28;20577;-86
2022/08/31 04:03:08;;;;;;;2.67;1.38;;;12.10;99.90;;;;;;5022190;28;20049;-86
2022/08/31 04:05:39;;;;;;;2.20;1.30;;;12.00;99.90;;;;;;5014348;28;20045;-86
2022/08/31 04:08:05;;;;;;;2.22;1.13;;;12.00;99.90;;;;;;4994083;28;20077;-85
2022/08/31 04:10:31;;;;;;;2.08;1.10;;;12.00;99.90;;;;;;4989784;28;20088;-86
2022/08/31 04:12:57;;;;;;;1.83;1.50;;;12.00;99.90;;;;;;5024240;28;20052;-86
2022/08/31 04:15:22;;;;;;;2.88;1.20;;;11.90;1.00;;;;;;5006614;28;20628;-86
2022/08/31 04:17:48;;;;;;;1.75;1.33;;;11.90;1.00;;;;;;5025492;28;20141;-86
2022/08/31 04:20:14;;;;;;;4.60;1.40;;;12.00;83.70;;;;;;5005701;28;20037;-86
2022/08/31 04:22:40;;;;;;;2.40;1.30;;;12.00;99.90;;;;;;5001252;28;20045;-86
2022/08/31 04:25:06;;;;;;;3.50;1.42;;;11.90;99.90;;;;;;4997714;28;20112;-86
2022/08/31 04:27:36;;;;;;;1.85;1.30;;;12.00;99.90;;;;;;5040585;28;20034;-86
2022/08/31 04:30:03;;;;;;;2.63;1.40;;;12.00;99.90;;;;;;5025903;28;20072;-86
2022/08/31 04:32:29;;;;;;;2.78;1.30;;;12.00;99.90;;;;;;5022976;28;20034;-86
2022/08/31 04:34:54;;;;;;;3.28;1.50;;;12.00;99.90;;;;;;5038502;28;20041;-87
2022/08/31 04:37:20;;;;;;;1.52;1.30;;;12.00;99.90;;;;;;5018945;28;20433;-85
2022/08/31 04:39:46;;;;;;;1.58;1.30;;;12.00;99.90;;;;;;5025793;28;20050;-87
2022/08/31 04:42:12;;;;;;;2.58;1.48;;;12.00;99.90;;;;;;4995293;28;20055;-86
2022/08/31 04:44:37;;;;;;;2.55;1.60;;;12.00;1.00;;;;;;4989211;28;20047;-86
2022/08/31 04:47:03;;;;;;;3.28;1.40;;;12.00;1.00;;;;;;5018370;28;20433;-86
2022/08/31 04:49:29;;;;;;;2.30;1.67;;;12.10;1.00;;;;;;5017994;28;20033;-86
2022/08/31 04:51:54;;;;;;;1.60;1.20;;;12.00;1.00;;;;;;4992648;28;20049;-86
2022/08/31 04:54:20;;;;;;;1.83;1.40;;;12.10;1.00;;;;;;4996022;28;20626;-86
2022/08/31 04:56:46;;;;;;;2.13;1.40;;;12.10;1.00;;;;;;5037973;28;20033;-86
2022/08/31 04:59:14;;;;;;;1.70;1.30;;;12.10;1.00;;;;;;5019282;28;20038;-86
2022/08/31 05:01:44;;;;;;;6.55;1.50;;;12.10;1.00;;;;;;5024721;28;20362;-86
2022/08/31 05:04:13;;;;;;;2.25;1.27;;;12.10;1.00;;;;;;5037904;28;20125;-86
2022/08/31 05:06:42;;;;;;;2.10;1.52;;;12.20;91.90;;;;;;4995403;28;20441;-86
2022/08/31 05:09:11;;;;;;;2.30;1.63;;;12.20;1.00;;;;;;4993425;28;20037;-87
2022/08/31 05:11:37;;;;;;;5.55;1.60;;;12.20;1.00;;;;;;5020103;28;20648;-86
2022/08/31 05:14:05;;;;;;;4.30;1.50;;;12.20;1.00;;;;;;4998777;28;20152;-86
2022/08/31 05:16:32;;;;;;;2.53;1.60;;;12.20;99.90;;;;;;5005167;28;20037;-86
2022/08/31 05:18:59;;;;;;;2.42;1.40;;;12.30;1.00;;;;;;5004562;28;20053;-86
2022/08/31 05:21:31;;;;;;;1.95;1.50;;;12.40;1.00;;;;;;5006909;28;20091;-86
2022/08/31 05:24:09;;;;;;;3.45;1.30;;;12.40;99.90;;;;;;5036471;28;20041;-86
2022/08/31 05:26:38;;;;;;;1.55;1.30;;;12.50;99.90;;;;;;5008824;28;20080;-86
2022/08/31 05:29:06;;;;;;;1.77;1.10;;;12.50;99.90;;;;;;4996224;28;20077;-86
2022/08/31 05:31:37;;;;;;;2.45;1.60;;;12.60;99.90;;;;;;5036635;28;20048;-86
2022/08/31 05:34:03;;;;;;;1.75;1.30;;;12.60;99.90;;;;;;4977322;28;20088;-86
2022/08/31 05:36:29;;;;;;;2.45;1.60;;;12.70;99.90;;;;;;5010819;28;20041;-86
2022/08/31 05:38:55;;;;;;;2.47;1.23;;;12.80;99.90;;;;;;5037453;28;20405;-85
2022/08/31 05:41:22;;;;;;;3.90;1.58;;;12.90;99.90;;;;;;5037063;28;20114;-86
2022/08/31 05:43:48;;;;;;;2.60;1.60;;;13.00;48.50;;;;;;5012076;28;20107;-86
2022/08/31 05:46:14;;;;;;;2.58;1.38;;;13.10;22.60;;;;;;5016391;28;20338;-85
2022/08/31 05:48:41;;;;;;;4.60;1.50;;;13.20;15.10;;;;;;4992909;28;20124;-84
2022/08/31 05:51:10;;;;;;;2.28;1.50;;;13.20;1.00;;;;;;4995617;28;20077;-85
2022/08/31 05:53:37;;;;;;;2.35;1.52;;;13.30;99.90;;;;;;5018134;28;20034;-85
2022/08/31 05:56:13;;;;;;;4.10;1.80;;;13.40;1.00;;;;;;5013782;28;20033;-84
2022/08/31 05:58:41;;;;;;;3.13;1.45;;;13.50;99.90;;;;;;5024471;28;20036;-84
2022/08/31 06:01:20;;;;;;;3.63;1.70;;;13.50;99.90;;;;;;4993246;28;20041;-85
2022/08/31 06:03:46;;;;;;;1.65;1.45;;;13.70;99.90;;;;;;5018849;28;20203;-85
2022/08/31 06:06:15;;;;;;;1.73;1.38;;;13.70;99.90;;;;;;5017120;28;20058;-84
2022/08/31 06:08:42;;;;;;;2.60;1.48;;;13.80;99.90;;;;;;5015589;28;20084;-84
2022/08/31 06:11:16;;;;;;;3.38;1.55;;;13.90;99.90;;;;;;4989946;28;20416;-84
2022/08/31 06:13:44;;;;;;;3.58;1.30;;;14.00;99.90;;;;;;5029109;28;20116;-85
2022/08/31 06:16:12;;;;;;;2.00;1.45;;;14.10;99.90;;;;;;5018383;28;20065;-85
2022/08/31 06:18:39;;;;;;;1.95;1.45;;;14.10;99.90;;;;;;4986641;28;20556;-84
2022/08/31 06:21:11;;;;;;;1.48;1.38;;;14.20;99.90;;;;;;5016559;28;20437;-85
2022/08/31 06:23:46;;;;;;;2.22;1.25;;;14.30;99.90;;;;;;4969759;28;20195;-85
2022/08/31 06:26:17;;;;;;;4.18;1.40;;;14.40;20.90;;;;;;5010359;28;20026;-84
2022/08/31 06:28:45;;;;;;;3.47;1.30;;;14.50;1.00;;;;;;4997342;28;20030;-85
2022/08/31 06:31:25;;;;;;;1.70;1.40;;;14.60;1.00;;;;;;4984532;28;20490;-84
2022/08/31 06:33:52;;;;;;;2.22;1.40;;;14.70;99.90;;;;;;4997242;28;20051;-85
2022/08/31 06:36:19;;;;;;;2.42;1.30;;;14.80;99.90;;;;;;5014224;28;20050;-85
2022/08/31 06:38:45;;;;;;;1.92;1.23;;;14.80;99.90;;;;;;5027288;28;20052;-85
2022/08/31 06:41:17;;;;;;;1.65;1.20;;;14.90;99.90;;;;;;4989211;28;20034;-84
2022/08/31 06:43:43;;;;;;;1.67;1.20;;;15.00;99.70;;;;;;4990483;28;20495;-85
2022/08/31 06:46:10;;;;;;;4.22;0.88;;;15.10;99.90;;;;;;5030712;28;20037;-85
2022/08/31 06:48:39;;;;;;;2.92;0.90;;;15.30;99.90;;;;;;4978716;28;20204;-85
2022/08/31 06:51:07;;;;;;;1.52;0.88;;;15.30;99.90;;;;;;4982872;28;20065;-84
2022/08/31 06:53:35;;;;;;;1.13;0.80;;;15.40;46.20;;;;;;4977937;28;20180;-84
2022/08/31 06:56:10;;;;;;;1.67;0.82;;;15.50;1.00;;;;;;5018777;28;20033;-85
2022/08/31 06:58:35;;;;;;;2.28;0.80;;;15.60;1.00;;;;;;5007018;28;20506;-85
2022/08/31 07:01:13;;;;;;;2.40;0.80;;;15.60;99.90;;;;;;5017019;28;20116;-84
2022/08/31 07:03:42;;;;;;;1.90;0.80;;;15.70;99.90;;;;;;5017213;28;20088;-85
2022/08/31 07:06:16;;;;;;;2.75;0.90;;;15.80;99.90;;;;;;5019201;28;20068;-85
2022/08/31 07:08:43;;;;;;;2.08;0.90;;;15.90;99.90;;;;;;4975971;28;20082;-85
2022/08/31 07:11:11;;;;;;;7.15;1.30;;;15.90;99.90;;;;;;4987354;28;20288;-85
2022/08/31 07:13:37;;;;;;;2.38;0.73;;;16.00;99.90;;;;;;5015553;28;20686;-85
2022/08/31 07:16:08;;;;;;;2.55;0.77;;;16.00;1.00;;;;;;4987023;28;20052;-85
2022/08/31 07:18:34;;;;;;;1.40;0.82;;;16.10;1.00;;;;;;5024172;28;20050;-84
2022/08/31 07:21:28;;;;;;;1.80;0.70;;;16.20;26.50;;;;;;5012687;28;20038;-85
2022/08/31 07:23:56;;;;;;;2.83;0.75;;;16.40;99.90;;;;;;4982465;28;20060;-85
2022/08/31 07:26:28;;;;;;;1.80;0.60;;;16.30;99.90;;;;;;5018097;28;20041;-85
2022/08/31 07:28:55;;;;;;;2.97;0.70;;;16.40;99.90;;;;;;5003069;28;20522;-84
2022/08/31 07:31:24;;;;;;;2.47;0.80;;;16.50;99.90;;;;;;5017604;28;20045;-85
2022/08/31 07:33:54;;;;;;;4.10;0.80;;;16.60;99.90;;;;;;4974471;28;20051;-86
2022/08/31 07:36:22;;;;;;;1.65;1.00;;;16.70;99.90;;;;;;5013353;28;20588;-85
2022/08/31 07:42:18;;;;;;;1.85;0.65;;;16.90;99.90;;;;;;5028675;28;20042;-84
2022/08/31 07:44:22;;;;;;;1.15;0.90;;;16.80;99.90;;;;;;5019437;28;20137;-85
2022/08/31 07:46:50;;;;;;;4.20;0.63;;;17.00;99.90;;;;;;5014759;28;20054;-85
2022/08/31 07:49:18;;;;;;;3.95;0.70;;;17.00;99.90;;;;;;5014163;28;20079;-86
2022/08/31 07:51:49;;;;;;;5.35;0.73;;;17.10;99.90;;;;;;4983233;28;20198;-85
2022/08/31 07:54:20;;;;;;;1.13;0.65;;;17.10;91.60;;;;;;5020575;28;20419;-85
2022/08/31 07:56:50;;;;;;;3.63;0.80;;;17.20;44.50;;;;;;4992672;28;20052;-84
2022/08/31 07:59:21;;;;;;;2.70;0.77;;;17.30;98.20;;;;;;4984206;28;20399;-85
2022/08/31 08:01:48;;;;;;;1.30;0.55;;;17.30;99.90;;;;;;4989495;28;20185;-85
2022/08/31 08:04:20;;;;;;;3.53;1.33;;;17.50;99.90;;;;;;5014199;28;20047;-85
2022/08/31 08:06:47;;;;;;;2.38;0.70;;;17.50;19.90;;;;;;4995673;28;20058;-86
2022/08/31 08:09:16;;;;;;;0.80;0.68;;;17.50;1.00;;;;;;5026156;28;20042;-85
2022/08/31 08:11:43;;;;;;;2.40;0.70;;;17.50;1.00;;;;;;4990391;28;20116;-85
2022/08/31 08:14:11;;;;;;;1.65;0.50;;;17.60;1.00;;;;;;5017159;28;20054;-85
2022/08/31 08:16:37;;;;;;;1.85;0.80;;;17.70;1.00;;;;;;5022340;28;20054;-85
2022/08/31 08:19:03;;;;;;;1.65;0.80;;;17.80;1.00;;;;;;5022838;28;20048;-85
2022/08/31 08:21:29;;;;;;;0.90;0.50;;;18.00;9.80;;;;;;5021631;28;20132;-85
2022/08/31 08:23:55;;;;;;;0.75;0.63;;;18.00;1.00;;;;;;5015634;28;20076;-86
2022/08/31 08:26:22;;;;;;;2.03;0.55;;;18.00;99.90;;;;;;5018744;28;20555;-85
2022/08/31 08:28:47;;;;;;;2.72;0.70;;;18.10;99.90;;;;;;4992065;28;20092;-85
2022/08/31 08:31:17;;;;;;;3.10;0.90;;;18.20;99.90;;;;;;4978732;28;20050;-84
2022/08/31 08:33:44;;;;;;;0.90;0.50;;;18.20;99.90;;;;;;5014701;28;20128;-85
2022/08/31 08:36:11;;;;;;;2.38;0.70;;;18.20;99.90;;;;;;4975879;28;20073;-85
2022/08/31 08:38:39;;;;;;;1.90;0.73;;;18.30;99.90;;;;;;4994713;28;20507;-85
2022/08/31 08:41:20;;;;;;;1.90;0.68;;;18.30;99.90;;;;;;4993905;28;20033;-85
2022/08/31 08:43:50;;;;;;;3.55;0.60;;;18.50;99.90;;;;;;5020229;28;20396;-85
2022/08/31 08:46:19;;;;;;;1.23;0.60;;;18.60;99.90;;;;;;5031972;28;20754;-85
2022/08/31 08:48:48;;;;;;;4.32;0.80;;;18.70;99.90;;;;;;4975390;28;20414;-85
2022/08/31 08:51:18;;;;;;;1.50;0.50;;;18.80;99.90;;;;;;4980969;28;20045;-85
2022/08/31 08:53:48;;;;;;;1.48;0.70;;;18.90;99.90;;;;;;4989790;28;20510;-85
2022/08/31 08:56:13;;;;;;;2.88;0.90;;;19.00;99.90;;;;;;4984330;28;20096;-85
2022/08/31 08:58:46;;;;;;;0.98;0.50;;;19.20;99.90;;;;;;4994933;28;20049;-85
2022/08/31 09:01:23;;;;;;;2.40;0.80;;;19.20;99.90;;;;;;5032592;28;20120;-85
2022/08/31 09:04:16;;;;;;;2.78;0.70;;;19.30;99.90;;;;;;4992506;28;20064;-85
2022/08/31 09:07:00;;;;;;;3.53;0.82;;;19.30;99.90;;;;;;5004205;28;20113;-85
2022/08/31 09:09:52;;;;;;;2.67;0.80;;;19.60;99.90;;;;;;5007718;28;20046;-85
2022/08/31 09:12:43;;;;;;;2.33;0.60;;;19.40;99.90;;;;;;5019445;28;20087;-84
2022/08/31 09:15:37;;;;;;;1.48;0.70;;;19.80;99.90;;;;;;5023108;28;20042;-85
2022/08/31 09:18:35;;;;;;;3.33;0.77;;;19.80;97.90;;;;;;5034920;28;20140;-85
2022/08/31 09:21:22;;;;;;;1.38;0.68;;;19.90;99.90;;;;;;5000168;28;20045;-85
2022/08/31 09:24:01;;;;;;;1.10;0.65;;;20.10;49.90;;;;;;4979351;28;20046;-85
2022/08/31 09:26:31;;;;;;;2.65;0.57;;;20.30;15.70;;;;;;5038767;28;20041;-85
2022/08/31 09:28:57;;;;;;;3.28;0.95;;;20.30;1.00;;;;;;5009227;28;20232;-85
2022/08/31 09:31:40;;;;;;;1.27;0.70;;;20.40;1.00;;;;;;5002575;28;20494;-85
2022/08/31 09:34:13;;;;;;;1.48;0.50;;;20.60;1.00;;;;;;5020282;28;20564;-85
2022/08/31 09:36:42;;;;;;;1.30;0.80;;;20.80;1.00;;;;;;4993664;28;20508;-85
2022/08/31 09:39:20;;;;;;;1.63;0.70;;;21.00;1.00;;;;;;4989031;28;20053;-85
2022/08/31 09:41:48;;;;;;;1.55;0.60;;;21.00;99.90;;;;;;5007019;28;20081;-85
2022/08/31 09:44:34;;;;;;;1.50;0.52;;;21.20;99.90;;;;;;5033262;28;20615;-85
2022/08/31 09:47:05;;;;;;;1.02;0.60;;;21.50;99.90;;;;;;4989405;28;20124;-85
2022/08/31 09:49:36;;;;;;;1.02;0.55;;;21.50;99.90;;;;;;4982748;28;20034;-84
2022/08/31 09:55:26;;;;;;;2.42;0.75;;;21.70;99.90;;;;;;4960852;28;20122;-84
2022/08/31 09:57:57;;;;;;;1.33;0.65;;;21.90;99.90;;;;;;5001192;28;20079;-86
2022/08/31 10:00:43;;;;;;;1.83;0.70;;;21.90;99.90;;;;;;5016492;28;20117;-84
2022/08/31 10:03:29;;;;;;;2.10;0.70;;;21.90;99.90;;;;;;5002361;28;20118;-85
2022/08/31 10:05:59;;;;;;;1.60;0.50;;;22.10;99.90;;;;;;5014558;28;20526;-85
2022/08/31 10:08:56;;;;;;;1.45;0.75;;;22.10;99.90;;;;;;5016789;28;20049;-84
2022/08/31 10:11:28;;;;;;;4.07;0.73;;;22.20;99.90;;;;;;4998228;28;20045;-85
2022/08/31 10:13:59;;;;;;;2.33;0.65;;;22.40;99.90;;;;;;4979017;28;20069;-85
2022/08/31 10:16:43;;;;;;;1.05;0.63;;;22.80;99.90;;;;;;5032872;28;20440;-84
2022/08/31 10:19:17;;;;;;;1.00;0.80;;;23.10;99.90;;;;;;5016278;28;20111;-85
2022/08/31 10:22:00;;;;;;;2.30;1.00;;;22.70;99.90;;;;;;5025899;28;20459;-84
2022/08/31 10:24:53;;;;;;;6.72;0.70;;;22.50;99.90;;;;;;5029762;28;20636;-85
2022/08/31 10:27:34;;;;;;;1.58;0.70;;;22.70;99.90;;;;;;4993320;28;20045;-85
2022/08/31 10:30:21;;;;;;;2.47;0.60;;;22.70;99.90;;;;;;5023758;28;20431;-85
2022/08/31 10:33:11;;;;;;;2.42;1.02;;;23.00;99.90;;;;;;5020442;28;20409;-85
2022/08/31 10:35:41;;;;;;;1.85;0.57;;;22.90;99.90;;;;;;5028771;28;20462;-84
2022/08/31 10:38:45;;;;;;;0.38;0.38;;;22.80;99.90;;;;;;4995888;28;20050;-84
2022/08/31 10:41:19;;;;;;;1.85;0.65;;;22.90;99.90;;;;;;5003044;28;20064;-84
2022/08/31 10:44:07;;;;;;;1.63;0.50;;;22.70;99.90;;;;;;4988747;28;20048;-85
2022/08/31 10:46:34;;;;;;;1.92;0.77;;;22.70;99.90;;;;;;5010412;28;20046;-84
2022/08/31 10:49:02;;;;;;;0.82;0.52;;;23.00;99.90;;;;;;4994993;28;20229;-85
2022/08/31 10:51:37;;;;;;;0.88;0.55;;;22.90;99.90;;;;;;4989643;28;20046;-84
2022/08/31 10:54:27;;;;;;;3.30;0.80;;;22.80;99.90;;;;;;5004627;28;20042;-85
2022/08/31 10:57:20;;;;;;;2.05;0.50;;;22.60;99.90;;;;;;4976240;28;20054;-84
2022/08/31 11:00:00;;;;;;;2.53;0.52;;;23.00;99.90;;;;;;5010363;28;20041;-84
2022/08/31 11:02:58;;;;;;;0.68;0.50;;;23.10;99.90;;;;;;5009325;28;20069;-84
2022/08/31 11:05:38;;;;;;;2.35;0.63;;;23.10;99.90;;;;;;4995319;28;20116;-84
2022/08/31 11:08:24;;;;;;;1.40;0.70;;;23.50;99.90;;;;;;4976892;28;20065;-84
2022/08/31 11:10:53;;;;;;;1.95;0.65;;;23.40;99.90;;;;;;5017953;28;20038;-84
2022/08/31 11:14:03;;;;;;;1.23;0.68;;;23.50;99.90;;;;;;4985259;28;20662;-84
2022/08/31 11:16:46;;;;;;;0.90;0.80;;;23.50;99.90;;;;;;4978641;28;20041;-84
2022/08/31 11:19:37;;;;;;;1.05;0.60;;;23.40;99.90;;;;;;4963821;28;20529;-84
2022/08/31 11:22:27;;;;;;;2.45;0.50;;;23.50;99.90;;;;;;4992413;28;20055;-85
2022/08/31 11:25:13;;;;;;;0.98;0.40;;;23.40;99.90;;;;;;4983671;28;20112;-85
2022/08/31 11:27:57;;;;;;;0.77;0.50;;;23.60;99.90;;;;;;5019690;28;20453;-84
2022/08/31 11:30:28;;;;;;;0.95;0.65;;;23.70;99.90;;;;;;4986140;28;20110;-84
2022/08/31 11:33:10;;;;;;;1.38;0.80;;;23.90;99.90;;;;;;5017235;28;20087;-84
2022/08/31 11:35:48;;;;;;;2.47;0.80;;;23.70;99.90;;;;;;5021236;28;20046;-84
2022/08/31 11:38:55;;;;;;;0.70;0.43;;;24.00;99.90;;;;;;5020980;28;20129;-84
2022/08/31 11:41:45;;;;;;;0.60;0.60;;;24.10;99.90;;;;;;4995726;28;20128;-84
2022/08/31 11:44:29;;;;;;;0.68;0.45;;;24.10;99.90;;;;;;5007794;28;20050;-84
2022/08/31 11:47:26;;;;;;;1.60;0.50;;;23.70;99.90;;;;;;5015862;28;20401;-85
2022/08/31 11:49:54;;;;;;;1.88;0.57;;;23.90;99.90;;;;;;4976318;28;20069;-84
2022/08/31 11:52:23;;;;;;;2.10;0.60;;;23.20;96.10;;;;;;5020083;28;20250;-84
2022/08/31 11:54:49;;;;;;;0.80;0.50;;;23.80;99.90;;;;;;5000278;28;20052;-84
2022/08/31 11:57:31;;;;;;;0.60;0.60;;;24.10;99.90;;;;;;5004892;28;20493;-84
2022/08/31 11:59:58;;;;;;;1.25;0.50;;;24.10;96.80;;;;;;5000903;28;20120;-84
2022/08/31 12:02:24;;;;;;;1.48;0.70;;;24.30;93.90;;;;;;5008177;28;20053;-84
2022/08/31 12:04:59;;;;;;;2.53;1.05;;;24.80;99.80;;;;;;4988451;28;20083;-84
2022/08/31 12:07:29;;;;;;;;;;;24.60;99.10;;;;;;5014419;28;20513;-84
2022/08/31 12:10:01;;;;;;;1.10;0.57;;;24.90;98.60;;;;;;5034023;28;19921;-84
2022/08/31 12:12:42;;;;;;;1.40;0.70;;;24.70;92.20;;;;;;4991432;28;20087;-83
2022/08/31 12:15:41;;;;;;;5.32;1.00;;;24.50;87.50;;;;;;4990870;28;20037;-84
2022/08/31 12:18:29;;;;;;;0.93;0.63;;;23.30;72.80;;;;;;4979396;28;20043;-84
2022/08/31 12:23:54;;;;;;;2.13;0.57;;;24.80;90.10;;;;;;5015285;28;20057;-84
2022/08/31 12:26:38;;;;;;;0.73;0.50;;;24.80;83.20;;;;;;4997704;28;20046;-84
2022/08/31 12:29:18;;;;;;;0.68;0.40;;;25.40;91.30;;;;;;4993985;28;20262;-84
2022/08/31 12:32:17;;;;;;;1.02;0.40;;;25.20;71.40;;;;;;5033782;28;20044;-84
2022/08/31 12:34:49;;;;;;;0.90;0.50;;;24.90;59.30;;;;;;4989877;28;20191;-84
2022/08/31 12:37:29;;;;;;;2.05;0.68;;;25.30;65.30;;;;;;5029118;28;20041;-84
2022/08/31 12:40:15;;;;;;;1.67;0.68;;;25.40;65.60;;;;;;4999842;28;20054;-84
2022/08/31 12:42:53;;;;;;;2.08;0.68;;;24.80;52.50;;;;;;5026580;28;20117;-84
2022/08/31 12:45:42;;;;;;;1.77;0.75;;;25.30;55.10;;;;;;5033535;28;20568;-84
2022/08/31 12:48:43;;;;;;;1.42;0.50;;;25.70;51.70;;;;;;4987438;28;20058;-84
2022/08/31 12:51:20;;;;;;;1.33;0.52;;;25.40;47.00;;;;;;4994663;28;20029;-84
2022/08/31 12:53:46;;;;;;;1.08;0.50;;;25.60;46.10;;;;;;5012266;28;20086;-83
2022/08/31 12:56:17;;;;;;;1.23;0.50;;;25.70;43.30;;;;;;4994096;28;20431;-84
2022/08/31 12:59:00;;;;;;;3.50;0.50;;;24.70;23.70;;;;;;5022474;28;20098;-84
2022/08/31 13:01:27;;;;;;;1.27;0.50;;;25.30;33.50;;;;;;5007813;28;20029;-84
2022/08/31 13:03:57;;;;;;;1.83;0.73;;;25.50;34.50;;;;;;4991015;28;20046;-84
2022/08/31 13:06:32;;;;;;;0.95;0.43;;;25.80;38.50;;;;;;5022135;28;20066;-84
2022/08/31 13:09:00;;;;;;;1.42;0.80;;;26.30;43.10;;;;;;5015502;28;20378;-84
2022/08/31 13:11:38;;;;;;;0.80;0.43;;;25.80;28.30;;;;;;5006440;28;20034;-84
2022/08/31 13:14:19;;;;;;;3.80;0.80;;;26.10;24.90;;;;;;4994336;28;20113;-84
2022/08/31 13:16:51;;;;;;;2.90;0.43;;;26.40;27.40;;;;;;5029646;28;20046;-84
2022/08/31 13:19:26;;;;;;;2.47;0.90;;;26.60;24.90;;;;;;4975797;28;20053;-84
2022/08/31 13:22:15;;;;;;;0.95;0.50;;;25.90;15.20;;;;;;4983153;28;20125;-84
2022/08/31 13:24:45;;;;;;;1.15;0.50;;;26.30;20.80;;;;;;4995069;28;20073;-84
2022/08/31 13:27:16;;;;;;;2.17;1.25;;;25.80;10.60;;;;;;5020890;28;20037;-84